LTCGLTFH

Guest
Details From LTCG - TRABZON
To LTFH - CARSAMBA
Flight Number -
Tags generated
Created
Modified
Stats Distance 147 nm / 272 km
Max Altitude 10,600 ft / 3,231 m
Waypoints 4
Social Downloads 0
Likes 0
Share VATSIM

Download

Looking for another format? Having issues loading an existing format? Contact us
Advertisement - Login to hide

Notes

Basic altitude profile: - Ascent Rate: 2500ft/min - Ascent Speed: 250kts - Cruise Altitude: 35000ft - Cruise Speed: 420kts - Descent Rate: 1500ft/min - Descent Speed: 250kts Options: - Use NATs: yes - Use PACOTS: yes - Use low airways: yes - Use high airways: yes

Route

LTCG TEMEL W71 TERME LTFH

ID Type Via Altitude Latitude Longitude Leg Dist Tot Dist Heading (true) Name
O LTCG APT - 0 ft / 0 m 40.99506˚ 39.78970˚ - 0 nm - TRABZON
TEMEL FIX - 10,600 ft / 3,231 m 41.05722˚ 39.13722˚ 29 nm 29 nm 277° / 277° -
TERME FIX W71 (AWY-LO) 9,500 ft / 2,896 m 41.21444˚ 37.22472˚ 87 nm 116 nm 277° / 276° -
O LTFH APT - 0 ft / 0 m 41.25448˚ 36.56710˚ 29 nm 146 nm 275° / 274° CARSAMBA

Altitude Profile

Advertisement - Login to hide

LTCG

Details ICAO LTCG (TZX)
Name TRABZON
Region Turkey
Timezone Europe/Istanbul (UTC+3.0)
Stats Elevation 104 ft / 32 m (AMSL)
Location 40.995060° 39.789701°
Runways 1
Magnetic Variation 6.319° E

METAR

LTCG 141250Z 10007KT CAVOK 13/08 Q1013 NOSIG

Decode

TAF

Not found

Departure Runways

ID Width Length Bearing (true) Bearing (mag) Surface Threshold Offset Overrun Length
11 148 ft / 45 m 8,609 ft / 2,624 m 112.32° 106.00° Asphalt 0 ft / 0 m 197 ft / 60 m
29 148 ft / 45 m 8,609 ft / 2,624 m 292.34° 286.02° Asphalt 0 ft / 0 m 197 ft / 60 m

LTFH

Details ICAO LTFH (SZF)
Name CARSAMBA
Region Turkey
Timezone Europe/Istanbul (UTC+3.0)
Stats Elevation 18 ft / 5 m (AMSL)
Location 41.254480° 36.567103°
Runways 1
Magnetic Variation 6.200° E

METAR

LTFH 141250Z 31003KT 270V350 9999 FEW036 SCT100 BKN200 15/07 Q1014 NOSIG

Decode

TAF

Not found

Destination Runways

ID Width Length Bearing (true) Bearing (mag) Surface Threshold Offset Overrun Length
13 148 ft / 45 m 9,798 ft / 2,986 m 133.61° 127.41° Concrete 0 ft / 0 m 195 ft / 59 m
31 148 ft / 45 m 9,798 ft / 2,986 m 313.63° 307.43° Concrete 0 ft / 0 m 195 ft / 59 m

Approach Navaids

Runway Type Ident Frequency Range Bearing (true) Bearing (mag) Slope Elevation
13 Localiser ICRM 110.10 MHz 18 nm / 33 km 133.64° 127.44° - 18 ft / 5 m (AMSL)
13 Glidescope ICRM 110.10 MHz 10 nm / 19 km 133.62° 127.42° 3.00° 18 ft / 5 m (AMSL)

Popular Alternatives